createdAt,value
2019-02-14T00:00:54.131Z,-3.60
2019-02-14T00:03:22.658Z,-3.60
2019-02-14T00:05:51.116Z,-3.60
2019-02-14T00:08:19.669Z,-3.50
2019-02-14T00:10:48.203Z,-3.60
2019-02-14T00:13:16.734Z,-3.60
2019-02-14T00:15:45.278Z,-3.70
2019-02-14T00:18:13.809Z,-3.70
2019-02-14T00:20:42.337Z,-3.70
2019-02-14T00:23:10.956Z,-3.70
2019-02-14T00:25:39.487Z,-3.60
2019-02-14T00:28:07.939Z,-3.50
2019-02-14T00:30:36.486Z,-3.60
2019-02-14T00:33:04.946Z,-3.60
2019-02-14T00:35:33.833Z,-3.70
2019-02-14T00:38:02.391Z,-3.70
2019-02-14T00:40:30.918Z,-3.60
2019-02-14T00:42:59.446Z,-3.60
2019-02-14T00:45:28.203Z,-3.70
2019-02-14T00:47:56.720Z,-3.70
2019-02-14T00:50:25.254Z,-3.50
2019-02-14T00:52:53.734Z,-3.60
2019-02-14T00:55:22.260Z,-3.60
2019-02-14T00:57:51.106Z,-3.80
2019-02-14T01:00:19.675Z,-3.80
2019-02-14T01:02:48.203Z,-3.90
2019-02-14T01:05:16.747Z,-4.00
2019-02-14T01:07:45.300Z,-4.00
2019-02-14T01:10:13.963Z,-4.00
2019-02-14T01:12:42.499Z,-4.00
2019-02-14T01:15:11.187Z,-4.10
2019-02-14T01:17:39.646Z,-4.10
2019-02-14T01:20:08.380Z,-4.10
2019-02-14T01:22:36.935Z,-4.20
2019-02-14T01:25:06.487Z,-4.00
2019-02-14T01:27:35.083Z,-4.00
2019-02-14T01:30:04.577Z,-4.10
2019-02-14T01:32:33.178Z,-4.10
2019-02-14T01:35:01.633Z,-4.00
2019-02-14T01:37:30.187Z,-4.00
2019-02-14T01:39:58.723Z,-4.00
2019-02-14T01:42:27.246Z,-3.90
2019-02-14T01:44:55.796Z,-3.80
2019-02-14T01:47:24.671Z,-3.70
2019-02-14T01:49:53.222Z,-3.60
2019-02-14T01:52:21.755Z,-3.60
2019-02-14T01:54:50.217Z,-3.70
2019-02-14T01:57:18.766Z,-3.80
2019-02-14T01:59:47.221Z,-3.90
2019-02-14T02:02:15.756Z,-4.00
2019-02-14T02:04:44.303Z,-4.10
2019-02-14T02:07:12.835Z,-4.10
2019-02-14T02:09:41.370Z,-4.20
2019-02-14T02:12:10.092Z,-4.20
2019-02-14T02:14:38.617Z,-4.20
2019-02-14T02:17:07.169Z,-4.20
2019-02-14T02:19:35.764Z,-4.30
2019-02-14T02:22:04.314Z,-4.30
2019-02-14T02:24:32.771Z,-4.40
2019-02-14T02:27:01.319Z,-4.50
2019-02-14T02:29:29.851Z,-4.50
2019-02-14T02:31:58.384Z,-4.50
2019-02-14T02:34:26.934Z,-4.50
2019-02-14T02:36:55.460Z,-4.50
2019-02-14T02:39:24.019Z,-4.40
2019-02-14T02:41:52.545Z,-4.40
2019-02-14T02:44:21.079Z,-4.40
2019-02-14T02:46:49.633Z,-4.40
2019-02-14T02:49:18.154Z,-4.40
2019-02-14T02:51:46.694Z,-4.30
2019-02-14T02:54:15.239Z,-4.20
2019-02-14T02:56:43.776Z,-4.20
2019-02-14T02:59:14.183Z,-4.20
2019-02-14T03:01:42.642Z,-4.30
2019-02-14T03:04:11.172Z,-4.30
2019-02-14T03:06:39.775Z,-4.40
2019-02-14T03:09:08.334Z,-4.30
2019-02-14T03:11:36.865Z,-4.30
2019-02-14T03:14:05.464Z,-4.30
2019-02-14T03:16:34.015Z,-4.30
2019-02-14T03:19:02.479Z,-4.40
2019-02-14T03:21:31.014Z,-4.40
2019-02-14T03:23:59.564Z,-4.40
2019-02-14T03:26:28.162Z,-4.40
2019-02-14T03:28:56.713Z,-4.40
2019-02-14T03:31:25.173Z,-4.40
2019-02-14T03:33:53.703Z,-4.40
2019-02-14T03:36:22.182Z,-4.50
2019-02-14T03:38:50.639Z,-4.50
2019-02-14T03:41:19.166Z,-4.60
2019-02-14T03:43:47.786Z,-4.70
2019-02-14T03:46:16.238Z,-4.80
2019-02-14T03:48:44.768Z,-4.90
2019-02-14T03:51:13.391Z,-4.90
2019-02-14T03:53:41.918Z,-4.90
2019-02-14T03:56:10.471Z,-4.90
2019-02-14T03:58:39.005Z,-4.90
2019-02-14T04:01:07.551Z,-4.90
2019-02-14T04:03:36.154Z,-4.90
2019-02-14T04:06:04.699Z,-4.90
2019-02-14T04:08:33.294Z,-5.00
2019-02-14T04:11:01.829Z,-5.00
2019-02-14T04:13:30.371Z,-5.00
2019-02-14T04:15:58.899Z,-5.00
2019-02-14T04:18:27.431Z,-5.00
2019-02-14T04:20:55.982Z,-5.00
2019-02-14T04:23:24.518Z,-5.00
2019-02-14T04:25:53.049Z,-4.90
2019-02-14T04:28:21.598Z,-4.90
2019-02-14T04:30:50.135Z,-4.90
2019-02-14T04:33:18.682Z,-4.80
2019-02-14T04:35:47.142Z,-4.80
2019-02-14T04:38:15.670Z,-4.80
2019-02-14T04:40:44.146Z,-4.80
2019-02-14T04:43:12.678Z,-4.80
2019-02-14T04:45:41.229Z,-4.80
2019-02-14T04:48:09.754Z,-4.90
2019-02-14T04:50:38.207Z,-4.90
2019-02-14T04:53:06.771Z,-4.90
2019-02-14T04:55:35.299Z,-4.90
2019-02-14T04:58:03.831Z,-4.90
2019-02-14T05:00:32.370Z,-4.90
2019-02-14T05:03:00.828Z,-4.90
2019-02-14T05:05:29.354Z,-5.00
2019-02-14T05:07:57.899Z,-5.00
2019-02-14T05:10:26.431Z,-5.10
2019-02-14T05:12:54.954Z,-5.10
2019-02-14T05:15:23.426Z,-5.10
2019-02-14T05:17:51.879Z,-5.10
2019-02-14T05:20:20.422Z,-5.00
2019-02-14T05:22:48.950Z,-4.80
2019-02-14T05:25:17.399Z,-4.80
2019-02-14T05:27:46.014Z,-4.90
2019-02-14T05:30:18.532Z,-4.90
2019-02-14T05:32:47.059Z,-4.90
2019-02-14T05:35:15.603Z,-4.80
2019-02-14T05:37:44.130Z,-4.80
2019-02-14T05:40:12.803Z,-4.90
2019-02-14T05:42:41.385Z,-4.80
2019-02-14T05:45:11.714Z,-4.80
2019-02-14T05:47:40.240Z,-4.80
2019-02-14T05:50:11.910Z,-4.80
2019-02-14T05:52:40.466Z,-4.60
2019-02-14T05:55:10.854Z,-4.50
2019-02-14T05:57:39.453Z,-4.40
2019-02-14T06:00:11.191Z,-4.40
2019-02-14T06:02:39.717Z,-4.50
2019-02-14T06:05:08.323Z,-4.50
2019-02-14T06:07:36.781Z,-4.60
2019-02-14T06:10:08.270Z,-4.60
2019-02-14T06:12:36.807Z,-4.70
2019-02-14T06:15:10.836Z,-4.70
2019-02-14T06:17:39.368Z,-4.70
2019-02-14T06:20:10.047Z,-4.60
2019-02-14T06:22:38.574Z,-4.50
2019-02-14T06:25:11.676Z,-4.50
2019-02-14T06:27:40.205Z,-4.60
2019-02-14T06:30:11.964Z,-4.60
2019-02-14T06:32:40.494Z,-4.60
2019-02-14T06:35:10.594Z,-4.50
2019-02-14T06:37:39.143Z,-4.50
2019-02-14T06:40:10.310Z,-4.50
2019-02-14T06:42:38.860Z,-4.50
2019-02-14T06:45:12.779Z,-4.50
2019-02-14T06:47:41.332Z,-4.50
2019-02-14T06:50:10.463Z,-4.50
2019-02-14T06:52:40.386Z,-4.50
2019-02-14T06:55:10.103Z,-4.40
2019-02-14T06:57:38.626Z,-4.40
2019-02-14T07:00:13.179Z,-4.30
2019-02-14T07:02:41.722Z,-4.20
2019-02-14T07:05:10.790Z,-4.20
2019-02-14T07:07:39.689Z,-4.20
2019-02-14T07:10:09.979Z,-4.10
2019-02-14T07:12:38.512Z,-3.90
2019-02-14T07:15:12.059Z,-3.80
2019-02-14T07:17:40.515Z,-3.60
2019-02-14T07:20:16.866Z,-3.30
2019-02-14T07:22:45.398Z,-3.20
2019-02-14T07:25:13.989Z,-3.10
2019-02-14T07:27:42.612Z,-3.10
2019-02-14T07:30:14.251Z,-3.00
2019-02-14T07:32:42.802Z,-2.90
2019-02-14T07:35:11.406Z,-2.80
2019-02-14T07:37:39.944Z,-2.50
2019-02-14T07:40:11.331Z,-2.20
2019-02-14T07:42:39.930Z,-2.00
2019-02-14T07:45:11.028Z,-1.70
2019-02-14T07:47:39.650Z,-1.40
2019-02-14T07:50:11.092Z,-1.00
2019-02-14T07:52:39.706Z,-0.60
2019-02-14T07:55:12.500Z,-0.10
2019-02-14T07:57:41.247Z,0.40
2019-02-14T08:00:15.163Z,0.90
2019-02-14T08:02:43.615Z,1.20
2019-02-14T08:05:12.283Z,1.10
2019-02-14T08:07:40.895Z,0.90
2019-02-14T08:10:14.909Z,0.90
2019-02-14T08:12:43.429Z,0.90
2019-02-14T08:15:13.623Z,0.70
2019-02-14T08:17:42.177Z,0.80
2019-02-14T08:20:21.296Z,0.70
2019-02-14T08:22:49.827Z,0.70
2019-02-14T08:25:18.437Z,0.60
2019-02-14T08:27:46.966Z,0.60
2019-02-14T08:30:19.464Z,0.70
2019-02-14T08:32:48.021Z,1.20
2019-02-14T08:35:16.549Z,2.00
2019-02-14T08:37:46.155Z,3.00
2019-02-14T08:40:25.682Z,3.80
2019-02-14T08:42:54.300Z,4.20
2019-02-14T08:45:22.822Z,4.50
2019-02-14T08:47:51.300Z,4.80
2019-02-14T08:50:19.900Z,5.00
2019-02-14T08:52:48.483Z,4.90
2019-02-14T08:55:17.103Z,5.30
2019-02-14T08:57:45.629Z,5.50
2019-02-14T09:00:15.809Z,5.60
2019-02-14T09:02:44.336Z,5.60
2019-02-14T09:05:13.182Z,5.50
2019-02-14T09:07:41.792Z,6.00
2019-02-14T09:10:12.853Z,6.40
2019-02-14T09:12:41.451Z,6.40
2019-02-14T09:15:11.939Z,6.60
2019-02-14T09:17:40.473Z,6.70
2019-02-14T09:20:19.321Z,7.00
2019-02-14T09:22:47.839Z,7.00
2019-02-14T09:25:16.290Z,7.10
2019-02-14T09:27:44.779Z,6.90
2019-02-14T09:30:14.431Z,6.70
2019-02-14T09:32:43.199Z,6.60
2019-02-14T09:35:11.879Z,6.40
2019-02-14T09:37:40.334Z,6.50
2019-02-14T09:40:11.864Z,6.50
2019-02-14T09:42:40.408Z,6.50
2019-02-14T09:45:11.281Z,6.80
2019-02-14T09:47:39.812Z,7.10
2019-02-14T09:50:13.650Z,7.20
2019-02-14T09:52:42.376Z,7.40
2019-02-14T09:55:12.457Z,7.50
2019-02-14T09:57:41.127Z,7.60
2019-02-14T10:00:12.470Z,7.70
2019-02-14T10:02:40.987Z,7.80
2019-02-14T10:05:10.839Z,7.90
2019-02-14T10:07:39.468Z,8.20
2019-02-14T10:10:19.876Z,8.20
2019-02-14T10:12:48.411Z,8.30
2019-02-14T10:15:16.866Z,8.50
2019-02-14T10:17:45.383Z,8.60
2019-02-14T10:20:17.574Z,8.80
2019-02-14T10:22:46.086Z,8.90
2019-02-14T10:25:14.746Z,9.00
2019-02-14T10:27:43.351Z,9.10
2019-02-14T10:30:19.992Z,9.10
2019-02-14T10:32:48.543Z,9.20
2019-02-14T10:35:17.133Z,9.40
2019-02-14T10:37:45.790Z,9.50
2019-02-14T10:40:16.357Z,9.70
2019-02-14T10:42:44.970Z,9.90
2019-02-14T10:45:16.103Z,10.00
2019-02-14T10:47:44.631Z,10.10
2019-02-14T10:50:13.309Z,10.10
2019-02-14T10:52:41.842Z,10.20
2019-02-14T10:55:14.970Z,10.40
2019-02-14T10:57:43.567Z,10.60
2019-02-14T11:00:21.217Z,10.60
2019-02-14T11:02:50.079Z,10.60
2019-02-14T11:05:19.326Z,10.70
2019-02-14T11:07:47.816Z,10.80
2019-02-14T11:10:16.982Z,11.00
2019-02-14T11:12:45.652Z,11.00
2019-02-14T11:15:24.962Z,11.10
2019-02-14T11:17:53.558Z,11.20
2019-02-14T11:20:22.081Z,11.40
2019-02-14T11:22:50.626Z,11.40
2019-02-14T11:25:28.261Z,11.40
2019-02-14T11:27:56.799Z,11.50
2019-02-14T11:30:25.586Z,11.50
2019-02-14T11:32:54.063Z,11.20
2019-02-14T11:35:22.655Z,11.20
2019-02-14T11:37:51.178Z,11.40
2019-02-14T11:40:19.654Z,11.50
2019-02-14T11:42:48.175Z,11.60
2019-02-14T11:45:24.147Z,11.80
2019-02-14T11:47:52.753Z,12.00
2019-02-14T11:50:21.302Z,12.00
2019-02-14T11:52:49.842Z,12.10
2019-02-14T11:55:18.431Z,12.00
2019-02-14T11:57:46.967Z,12.10
2019-02-14T12:00:24.739Z,12.20
2019-02-14T12:02:56.062Z,12.20
2019-02-14T12:05:23.619Z,12.30
2019-02-14T12:07:52.229Z,12.20
2019-02-14T12:10:20.838Z,12.30
2019-02-14T12:12:49.300Z,12.40
2019-02-14T12:15:17.891Z,12.50
2019-02-14T12:17:46.439Z,12.50
2019-02-14T12:20:15.947Z,12.50
2019-02-14T12:22:46.524Z,12.60
2019-02-14T12:25:17.648Z,12.50
2019-02-14T12:27:46.245Z,12.50
2019-02-14T12:30:16.374Z,12.50
2019-02-14T12:32:44.928Z,12.80
2019-02-14T12:35:13.590Z,13.00
2019-02-14T12:37:42.188Z,12.90
2019-02-14T12:40:12.183Z,13.00
2019-02-14T12:42:40.702Z,13.20
2019-02-14T12:45:20.348Z,13.30
2019-02-14T12:47:42.711Z,13.50
2019-02-14T12:50:11.387Z,13.60
2019-02-14T12:52:39.911Z,13.30
2019-02-14T12:55:08.598Z,13.20
2019-02-14T12:57:37.114Z,12.90
2019-02-14T13:00:11.783Z,12.80
2019-02-14T13:02:40.320Z,12.60
2019-02-14T13:05:09.322Z,12.30
2019-02-14T13:07:37.886Z,12.10
2019-02-14T13:10:09.523Z,12.20
2019-02-14T13:12:38.071Z,12.60
2019-02-14T13:15:10.011Z,12.70
2019-02-14T13:17:38.574Z,12.60
2019-02-14T13:20:08.375Z,12.60
2019-02-14T13:22:36.865Z,12.60
2019-02-14T13:25:08.624Z,12.60
2019-02-14T13:27:37.219Z,12.70
2019-02-14T13:30:08.827Z,12.70
2019-02-14T13:32:37.440Z,12.80
2019-02-14T13:35:06.505Z,13.00
2019-02-14T13:37:35.109Z,13.00
2019-02-14T13:40:04.251Z,13.30
2019-02-14T13:42:32.782Z,13.20
2019-02-14T13:45:01.309Z,13.30
2019-02-14T13:47:29.924Z,13.40
2019-02-14T13:49:58.452Z,13.30
2019-02-14T13:52:26.980Z,13.30
2019-02-14T13:54:55.527Z,13.20
2019-02-14T13:57:24.523Z,13.10
2019-02-14T13:59:53.051Z,13.10
2019-02-14T14:02:21.594Z,13.10
2019-02-14T14:04:50.130Z,13.20
2019-02-14T14:07:18.667Z,13.30
2019-02-14T14:09:47.282Z,13.40
2019-02-14T14:12:15.832Z,13.40
2019-02-14T14:14:44.354Z,13.40
2019-02-14T14:17:12.907Z,13.30
2019-02-14T14:19:41.442Z,13.20
2019-02-14T14:22:09.959Z,13.10
2019-02-14T14:24:38.507Z,13.00
2019-02-14T14:27:06.959Z,13.00
2019-02-14T14:29:35.511Z,13.10
2019-02-14T14:32:04.039Z,13.20
2019-02-14T14:34:32.567Z,13.10
2019-02-14T14:37:01.123Z,13.00
2019-02-14T14:39:29.649Z,12.90
2019-02-14T14:41:58.170Z,12.90
2019-02-14T14:44:28.368Z,13.10
2019-02-14T14:46:56.884Z,13.20
2019-02-14T14:49:25.417Z,12.90
2019-02-14T14:51:53.963Z,12.70
2019-02-14T14:54:22.491Z,12.70
2019-02-14T14:56:51.039Z,12.80
2019-02-14T14:59:19.559Z,12.80
2019-02-14T15:01:48.227Z,12.70
2019-02-14T15:04:16.773Z,12.60
2019-02-14T15:06:45.297Z,12.30
2019-02-14T15:09:13.832Z,12.30
2019-02-14T15:11:42.375Z,12.00
2019-02-14T15:14:10.913Z,11.80
2019-02-14T15:16:39.431Z,11.60
2019-02-14T15:19:07.970Z,11.50
2019-02-14T15:21:36.496Z,11.40
2019-02-14T15:24:05.039Z,11.60
2019-02-14T15:26:33.566Z,11.40
2019-02-14T15:29:02.126Z,11.30
2019-02-14T15:31:30.650Z,11.30
2019-02-14T15:33:59.195Z,11.20
2019-02-14T15:36:28.314Z,11.10
2019-02-14T15:38:56.963Z,10.70
2019-02-14T15:41:25.506Z,10.60
2019-02-14T15:43:54.040Z,10.70
2019-02-14T15:46:22.606Z,10.90
2019-02-14T15:48:51.147Z,11.10
2019-02-14T15:51:20.096Z,11.00
2019-02-14T15:53:48.740Z,11.00
2019-02-14T15:56:17.268Z,11.00
2019-02-14T15:58:45.830Z,10.90
2019-02-14T16:01:16.457Z,10.90
2019-02-14T16:03:44.599Z,10.80
2019-02-14T16:06:14.154Z,10.60
2019-02-14T16:08:44.553Z,10.50
2019-02-14T16:11:14.302Z,10.20
2019-02-14T16:13:43.003Z,9.90
2019-02-14T16:16:11.603Z,9.90
2019-02-14T16:18:40.060Z,9.70
2019-02-14T16:21:08.647Z,9.40
2019-02-14T16:23:37.199Z,9.00
2019-02-14T16:26:05.793Z,8.60
2019-02-14T16:28:36.012Z,8.10
2019-02-14T16:31:04.507Z,8.00
2019-02-14T16:33:33.029Z,8.00
2019-02-14T16:36:01.579Z,7.90
2019-02-14T16:38:30.031Z,8.00
2019-02-14T16:40:58.626Z,8.00
2019-02-14T16:43:27.190Z,7.60
2019-02-14T16:45:55.701Z,7.40
2019-02-14T16:48:24.218Z,7.20
2019-02-14T16:50:52.687Z,6.90
2019-02-14T16:53:21.139Z,6.60
2019-02-14T16:55:49.666Z,6.30
2019-02-14T16:58:18.227Z,6.10
2019-02-14T17:00:46.759Z,6.00
2019-02-14T17:03:15.219Z,6.00
2019-02-14T17:05:43.839Z,6.00
2019-02-14T17:08:12.868Z,5.80
2019-02-14T17:10:41.461Z,5.30
2019-02-14T17:13:10.008Z,5.30
2019-02-14T17:15:38.533Z,5.20
2019-02-14T17:18:07.102Z,5.20
2019-02-14T17:20:35.686Z,5.30
2019-02-14T17:23:04.145Z,5.30
2019-02-14T17:25:32.696Z,5.10
2019-02-14T17:28:01.271Z,5.10
2019-02-14T17:30:29.727Z,5.20
2019-02-14T17:32:58.415Z,5.30
2019-02-14T17:35:26.931Z,5.10
2019-02-14T17:37:55.464Z,5.20
2019-02-14T17:40:24.070Z,5.10
2019-02-14T17:42:52.699Z,4.90
2019-02-14T17:45:21.307Z,4.50
2019-02-14T17:47:49.848Z,4.50
2019-02-14T17:50:18.446Z,4.30
2019-02-14T17:52:46.966Z,4.40
2019-02-14T17:55:15.510Z,4.40
2019-02-14T17:57:43.999Z,4.30
2019-02-14T18:00:13.230Z,4.20
2019-02-14T18:02:41.776Z,4.00
2019-02-14T18:05:10.377Z,3.90
2019-02-14T18:07:38.895Z,3.70
2019-02-14T18:10:12.405Z,3.50
2019-02-14T18:12:40.923Z,3.00
2019-02-14T18:15:13.006Z,2.80
2019-02-14T18:17:41.550Z,2.90
2019-02-14T18:20:11.406Z,2.70
2019-02-14T18:22:41.435Z,2.70
2019-02-14T18:25:12.372Z,2.70
2019-02-14T18:27:40.949Z,2.70
2019-02-14T18:30:11.104Z,2.70
2019-02-14T18:32:39.652Z,2.80
2019-02-14T18:35:12.458Z,2.80
2019-02-14T18:37:41.060Z,2.70
2019-02-14T18:40:10.651Z,2.70
2019-02-14T18:42:49.223Z,2.70
2019-02-14T18:45:17.838Z,2.80
2019-02-14T18:47:46.361Z,2.80
2019-02-14T18:50:15.053Z,2.70
2019-02-14T18:52:43.606Z,2.50
2019-02-14T18:55:12.418Z,2.30
2019-02-14T18:57:40.934Z,2.30
2019-02-14T19:00:12.669Z,2.30
2019-02-14T19:02:41.192Z,2.40
2019-02-14T19:05:11.356Z,2.20
2019-02-14T19:07:39.902Z,1.90
2019-02-14T19:10:13.763Z,1.60
2019-02-14T19:12:42.293Z,1.50
2019-02-14T19:15:14.391Z,1.30
2019-02-14T19:17:44.376Z,1.30
2019-02-14T19:20:13.623Z,1.20
2019-02-14T19:22:42.725Z,1.00
2019-02-14T19:25:11.362Z,0.60
2019-02-14T19:27:39.903Z,0.60
2019-02-14T19:30:10.575Z,0.60
2019-02-14T19:32:39.249Z,0.60
2019-02-14T19:35:09.235Z,0.40
2019-02-14T19:37:37.753Z,0.30
2019-02-14T19:40:09.156Z,0.20
2019-02-14T19:42:37.791Z,0.10
2019-02-14T19:45:09.626Z,0.00
2019-02-14T19:47:38.235Z,0.00
2019-02-14T19:50:12.543Z,0.00
2019-02-14T19:52:41.953Z,0.10
2019-02-14T19:55:10.621Z,0.20
2019-02-14T19:57:39.180Z,0.30
2019-02-14T20:00:17.295Z,0.30
2019-02-14T20:02:45.844Z,0.50
2019-02-14T20:05:14.372Z,0.50
2019-02-14T20:07:42.908Z,0.50
2019-02-14T20:10:15.485Z,0.20
2019-02-14T20:12:44.174Z,0.20
2019-02-14T20:15:17.790Z,0.10
2019-02-14T20:17:46.415Z,-0.10
2019-02-14T20:20:15.008Z,0.00
2019-02-14T20:22:43.628Z,-0.10
2019-02-14T20:25:18.127Z,-0.30
2019-02-14T20:27:46.691Z,-0.40
2019-02-14T20:30:15.234Z,-0.60
2019-02-14T20:32:43.758Z,-0.70
2019-02-14T20:35:12.316Z,-0.80
2019-02-14T20:37:40.867Z,-0.80
2019-02-14T20:40:10.519Z,-0.80
2019-02-14T20:42:39.210Z,-0.80
2019-02-14T20:45:15.183Z,-0.80
2019-02-14T20:47:43.767Z,-0.70
2019-02-14T20:50:13.899Z,-0.50
2019-02-14T20:52:42.430Z,-0.50
2019-02-14T20:55:14.096Z,-0.70
2019-02-14T20:57:42.687Z,-0.60
2019-02-14T21:00:16.178Z,-0.40
2019-02-14T21:02:44.728Z,-0.30
2019-02-14T21:05:13.323Z,-0.30
2019-02-14T21:07:41.927Z,-0.40
2019-02-14T21:10:10.606Z,-0.60
2019-02-14T21:12:39.131Z,-0.60
2019-02-14T21:15:09.102Z,-0.70
2019-02-14T21:17:37.642Z,-0.70
2019-02-14T21:20:09.180Z,-0.80
2019-02-14T21:22:37.805Z,-0.90
2019-02-14T21:25:08.173Z,-1.00
2019-02-14T21:27:36.783Z,-1.20
2019-02-14T21:30:08.655Z,-1.20
2019-02-14T21:32:37.194Z,-1.20
2019-02-14T21:35:06.658Z,-1.10
2019-02-14T21:37:35.286Z,-1.10
2019-02-14T21:40:06.494Z,-0.90
2019-02-14T21:42:35.009Z,-0.80
2019-02-14T21:45:04.203Z,-0.70
2019-02-14T21:47:32.802Z,-0.60
2019-02-14T21:50:01.340Z,-0.60
2019-02-14T21:52:29.907Z,-0.70
2019-02-14T21:54:58.444Z,-0.90
2019-02-14T21:57:27.036Z,-0.80
2019-02-14T21:59:55.583Z,-0.90
2019-02-14T22:02:24.118Z,-1.10
2019-02-14T22:04:52.633Z,-1.30
2019-02-14T22:07:21.189Z,-1.30
2019-02-14T22:09:49.718Z,-1.10
2019-02-14T22:12:37.139Z,-1.10
2019-02-14T22:14:48.529Z,-1.20
2019-02-14T22:17:17.063Z,-1.30
2019-02-14T22:19:45.598Z,-1.30
2019-02-14T22:22:14.282Z,-1.30
2019-02-14T22:24:42.741Z,-1.30
2019-02-14T22:27:11.263Z,-1.50
2019-02-14T22:29:39.815Z,-1.60
2019-02-14T22:32:08.348Z,-1.70
2019-02-14T22:34:36.883Z,-1.80
2019-02-14T22:37:05.500Z,-1.90
2019-02-14T22:39:34.033Z,-2.00
2019-02-14T22:42:02.588Z,-2.20
2019-02-14T22:44:31.110Z,-2.20
2019-02-14T22:46:59.656Z,-2.20
2019-02-14T22:49:28.253Z,-2.30
2019-02-14T22:51:56.810Z,-2.30
2019-02-14T22:54:25.407Z,-2.20
2019-02-14T22:56:53.934Z,-2.20
2019-02-14T22:59:22.484Z,-2.30
2019-02-14T23:01:51.477Z,-2.40
2019-02-14T23:04:20.034Z,-2.40
2019-02-14T23:06:48.591Z,-2.40
2019-02-14T23:09:17.287Z,-2.40
2019-02-14T23:11:45.912Z,-2.40
2019-02-14T23:14:14.440Z,-2.40
2019-02-14T23:16:42.966Z,-2.40
2019-02-14T23:19:11.519Z,-2.40
2019-02-14T23:21:40.038Z,-2.50
2019-02-14T23:24:08.569Z,-2.50
2019-02-14T23:26:37.122Z,-2.40
2019-02-14T23:29:05.643Z,-2.50
2019-02-14T23:31:34.103Z,-2.50
2019-02-14T23:34:02.652Z,-2.40
2019-02-14T23:36:31.185Z,-2.40
2019-02-14T23:38:59.707Z,-2.40
2019-02-14T23:41:28.256Z,-2.60
2019-02-14T23:43:56.775Z,-2.60
2019-02-14T23:46:25.232Z,-2.70
2019-02-14T23:48:53.782Z,-2.70
2019-02-14T23:51:22.313Z,-2.70
2019-02-14T23:53:50.858Z,-2.80
2019-02-14T23:56:19.311Z,-2.80
2019-02-14T23:58:47.839Z,-2.80
